createdAt,value
2022-10-18T00:01:16.987Z,20.60
2022-10-18T00:03:18.622Z,20.60
2022-10-18T00:05:20.309Z,20.60
2022-10-18T00:07:21.923Z,20.60
2022-10-18T00:09:23.559Z,20.60
2022-10-18T00:11:25.244Z,20.60
2022-10-18T00:13:26.861Z,20.60
2022-10-18T00:15:28.493Z,20.60
2022-10-18T00:17:30.515Z,20.60
2022-10-18T00:19:32.343Z,20.60
2022-10-18T00:21:34.090Z,20.60
2022-10-18T00:23:35.962Z,20.60
2022-10-18T00:25:37.579Z,20.60
2022-10-18T00:27:39.235Z,20.60
2022-10-18T00:29:40.873Z,20.60
2022-10-18T00:31:43.569Z,20.60
2022-10-18T00:33:45.868Z,20.60
2022-10-18T00:35:47.506Z,20.60
2022-10-18T00:37:49.191Z,20.60
2022-10-18T00:39:53.810Z,20.60
2022-10-18T00:41:55.574Z,20.60
2022-10-18T00:43:58.705Z,20.60
2022-10-18T00:46:00.341Z,20.60
2022-10-18T00:48:04.254Z,20.60
2022-10-18T00:50:07.326Z,20.60
2022-10-18T00:52:12.097Z,20.60
2022-10-18T00:54:15.062Z,20.60
2022-10-18T00:56:17.103Z,20.60
2022-10-18T00:58:19.813Z,20.60
2022-10-18T01:00:21.542Z,20.60
2022-10-18T01:02:23.749Z,20.60
2022-10-18T01:04:25.432Z,20.60
2022-10-18T01:06:28.194Z,20.60
2022-10-18T01:08:29.774Z,20.60
2022-10-18T01:10:54.874Z,20.70
2022-10-18T01:13:02.570Z,20.60
2022-10-18T01:15:04.185Z,20.60
2022-10-18T01:17:11.483Z,20.60
2022-10-18T01:19:13.083Z,20.60
2022-10-18T01:21:40.415Z,20.60
2022-10-18T01:23:42.031Z,20.60
2022-10-18T01:26:02.422Z,20.70
2022-10-18T01:28:04.023Z,20.70
2022-10-18T01:30:24.092Z,20.70
2022-10-18T01:32:32.535Z,20.70
2022-10-18T01:34:36.304Z,20.60
2022-10-18T01:36:40.376Z,20.70
2022-10-18T01:38:42.958Z,20.60
2022-10-18T01:40:47.245Z,20.60
2022-10-18T01:42:49.251Z,20.70
2022-10-18T01:44:51.923Z,20.70
2022-10-18T01:46:54.813Z,20.70
2022-10-18T01:48:57.036Z,20.70
2022-10-18T01:50:58.673Z,20.70
2022-10-18T01:53:01.729Z,20.70
2022-10-18T01:55:03.629Z,20.70
2022-10-18T01:57:24.716Z,20.70
2022-10-18T01:59:33.853Z,20.70
2022-10-18T02:01:42.429Z,20.70
2022-10-18T02:03:46.441Z,20.70
2022-10-18T02:05:54.004Z,20.70
2022-10-18T02:08:23.593Z,20.70
2022-10-18T02:10:29.768Z,20.70
2022-10-18T02:12:33.260Z,20.70
2022-10-18T02:14:39.275Z,20.80
2022-10-18T02:16:42.717Z,20.70
2022-10-18T02:19:04.576Z,20.70
2022-10-18T02:21:08.041Z,20.70
2022-10-18T02:23:10.247Z,20.80
2022-10-18T02:25:15.877Z,20.70
2022-10-18T02:27:17.529Z,20.70
2022-10-18T02:29:19.201Z,20.70
2022-10-18T02:31:26.208Z,20.70
2022-10-18T02:33:33.860Z,20.70
2022-10-18T02:35:37.638Z,20.70
2022-10-18T02:37:39.874Z,20.70
2022-10-18T02:39:46.787Z,20.70
2022-10-18T02:41:48.759Z,20.70
2022-10-18T02:43:50.407Z,20.70
2022-10-18T02:45:52.178Z,20.70
2022-10-18T02:47:53.814Z,20.70
2022-10-18T02:49:55.498Z,20.70
2022-10-18T02:51:57.168Z,20.70
2022-10-18T02:53:58.796Z,20.70
2022-10-18T02:56:00.429Z,20.70
2022-10-18T02:58:02.098Z,20.70
2022-10-18T03:00:04.801Z,20.70
2022-10-18T03:02:06.441Z,20.70
2022-10-18T03:04:10.715Z,20.70
2022-10-18T03:06:12.315Z,20.70
2022-10-18T03:08:13.929Z,20.60
2022-10-18T03:10:15.548Z,20.60
2022-10-18T03:12:17.200Z,20.60
2022-10-18T03:14:18.832Z,20.60
2022-10-18T03:16:20.529Z,20.60
2022-10-18T03:18:22.189Z,20.60
2022-10-18T03:20:23.781Z,20.60
2022-10-18T03:22:25.459Z,20.50
2022-10-18T03:24:27.100Z,20.50
2022-10-18T03:26:28.751Z,20.50
2022-10-18T03:28:30.433Z,20.50
2022-10-18T03:30:32.142Z,20.50
2022-10-18T03:32:34.066Z,20.50
2022-10-18T03:34:35.968Z,20.50
2022-10-18T03:36:38.740Z,20.50
2022-10-18T03:38:40.432Z,20.50
2022-10-18T03:40:42.040Z,20.50
2022-10-18T03:42:43.665Z,20.50
2022-10-18T03:44:45.353Z,20.50
2022-10-18T03:46:47.191Z,20.50
2022-10-18T03:48:48.885Z,20.50
2022-10-18T03:50:50.590Z,20.50
2022-10-18T03:52:54.036Z,20.40
2022-10-18T03:54:55.651Z,20.40
2022-10-18T03:56:57.281Z,20.50
2022-10-18T03:58:58.913Z,20.50
2022-10-18T04:01:00.527Z,20.40
2022-10-18T04:03:02.143Z,20.50
2022-10-18T04:05:03.887Z,20.50
2022-10-18T04:07:05.512Z,20.50
2022-10-18T04:09:09.512Z,20.40
2022-10-18T04:11:12.424Z,20.40
2022-10-18T04:13:14.095Z,20.40
2022-10-18T04:15:15.745Z,20.40
2022-10-18T04:17:17.378Z,20.40
2022-10-18T04:19:19.089Z,20.40
2022-10-18T04:21:20.714Z,20.40
2022-10-18T04:23:22.351Z,20.40
2022-10-18T04:25:24.194Z,20.40
2022-10-18T04:27:25.788Z,20.40
2022-10-18T04:29:27.425Z,20.40
2022-10-18T04:31:29.038Z,20.40
2022-10-18T04:33:30.655Z,20.40
2022-10-18T04:35:32.322Z,20.40
2022-10-18T04:37:34.132Z,20.40
2022-10-18T04:39:36.265Z,20.40
2022-10-18T04:41:37.894Z,20.40
2022-10-18T04:43:39.626Z,20.40
2022-10-18T04:45:41.779Z,20.40
2022-10-18T04:47:43.392Z,20.50
2022-10-18T04:49:45.030Z,20.40
2022-10-18T04:51:46.745Z,20.50
2022-10-18T04:53:48.391Z,20.40
2022-10-18T04:55:50.497Z,20.40
2022-10-18T04:57:52.809Z,20.50
2022-10-18T04:59:54.496Z,20.50
2022-10-18T05:01:56.240Z,20.40
2022-10-18T05:03:57.965Z,20.50
2022-10-18T05:06:02.534Z,20.40
2022-10-18T05:08:06.461Z,20.40
2022-10-18T05:10:08.328Z,20.50
2022-10-18T05:12:10.057Z,20.40
2022-10-18T05:14:11.866Z,20.40
2022-10-18T05:16:13.516Z,20.50
2022-10-18T05:18:15.427Z,20.40
2022-10-18T05:20:17.103Z,20.50
2022-10-18T05:22:18.720Z,20.40
2022-10-18T05:24:21.995Z,20.50
2022-10-18T05:26:25.919Z,20.50
2022-10-18T05:28:39.665Z,20.50
2022-10-18T05:30:42.199Z,20.40
2022-10-18T05:32:43.828Z,20.50
2022-10-18T05:34:45.528Z,20.40
2022-10-18T05:36:49.297Z,20.40
2022-10-18T05:38:52.500Z,20.40
2022-10-18T05:40:54.142Z,20.40
2022-10-18T05:42:55.757Z,20.40
2022-10-18T05:44:57.369Z,20.40
2022-10-18T05:46:58.984Z,20.40
2022-10-18T05:49:00.619Z,20.40
2022-10-18T05:51:02.244Z,20.40
2022-10-18T05:53:12.265Z,20.40
2022-10-18T05:55:25.512Z,20.40
2022-10-18T05:57:27.155Z,20.40
2022-10-18T05:59:28.756Z,20.40
2022-10-18T06:01:30.608Z,20.40
2022-10-18T06:03:32.583Z,20.40
2022-10-18T06:05:34.249Z,20.40
2022-10-18T06:07:35.912Z,20.40
2022-10-18T06:09:37.928Z,20.40
2022-10-18T06:11:39.585Z,20.40
2022-10-18T06:13:45.211Z,20.40
2022-10-18T06:15:46.845Z,20.40
2022-10-18T06:17:48.441Z,20.40
2022-10-18T06:19:50.146Z,20.40
2022-10-18T06:21:51.761Z,20.40
2022-10-18T06:23:54.742Z,20.40
2022-10-18T06:26:03.526Z,20.40
2022-10-18T06:28:07.888Z,20.40
2022-10-18T06:30:11.991Z,20.50
2022-10-18T06:32:14.669Z,20.40
2022-10-18T06:34:16.297Z,20.50
2022-10-18T06:36:19.574Z,20.50
2022-10-18T06:38:21.185Z,20.40
2022-10-18T06:40:22.963Z,20.40
2022-10-18T06:42:24.586Z,20.40
2022-10-18T06:44:26.351Z,20.40
2022-10-18T06:46:27.982Z,20.50
2022-10-18T06:48:30.221Z,20.50
2022-10-18T06:50:31.955Z,20.50
2022-10-18T06:52:33.871Z,20.50
2022-10-18T06:54:35.785Z,20.40
2022-10-18T06:56:37.771Z,20.50
2022-10-18T06:58:39.720Z,20.50
2022-10-18T07:00:41.525Z,20.50
2022-10-18T07:02:43.190Z,20.50
2022-10-18T07:04:44.901Z,20.50
2022-10-18T07:06:46.556Z,20.50
2022-10-18T07:08:48.959Z,20.50
2022-10-18T07:10:52.075Z,20.50
2022-10-18T07:13:03.156Z,20.50
2022-10-18T07:15:15.405Z,20.50
2022-10-18T07:17:17.027Z,20.50
2022-10-18T07:19:18.656Z,20.60
2022-10-18T07:21:21.595Z,20.50
2022-10-18T07:23:23.887Z,20.60
2022-10-18T07:25:28.404Z,20.50
2022-10-18T07:27:35.784Z,20.50
2022-10-18T07:29:40.989Z,20.60
2022-10-18T07:31:42.694Z,20.50
2022-10-18T07:33:44.355Z,20.50
2022-10-18T07:35:46.351Z,20.60
2022-10-18T07:37:47.990Z,20.60
2022-10-18T07:39:49.649Z,20.50
2022-10-18T07:41:51.320Z,20.50
2022-10-18T07:43:53.031Z,20.50
2022-10-18T07:45:55.184Z,20.50
2022-10-18T07:47:56.901Z,20.50
2022-10-18T07:49:58.537Z,20.50
2022-10-18T07:52:00.233Z,20.50
2022-10-18T07:54:02.329Z,20.50
2022-10-18T07:56:08.644Z,20.50
2022-10-18T07:58:12.029Z,20.50
2022-10-18T08:00:13.840Z,20.50
2022-10-18T08:02:16.773Z,20.50
2022-10-18T08:04:18.483Z,20.50
2022-10-18T08:06:23.107Z,20.50
2022-10-18T08:08:24.790Z,20.50
2022-10-18T08:10:26.517Z,20.50
2022-10-18T08:12:28.175Z,20.60
2022-10-18T08:14:29.878Z,20.50
2022-10-18T08:18:34.668Z,20.60
2022-10-18T08:20:37.044Z,20.60
2022-10-18T08:22:38.709Z,20.60
2022-10-18T08:24:40.394Z,20.60
2022-10-18T08:26:42.087Z,20.60
2022-10-18T08:28:53.612Z,20.70
2022-10-18T08:31:06.262Z,20.70
2022-10-18T08:33:07.967Z,20.60
2022-10-18T08:35:09.823Z,20.70
2022-10-18T08:37:11.501Z,20.60
2022-10-18T08:39:13.196Z,20.70
2022-10-18T08:41:26.342Z,20.70
2022-10-18T08:43:38.579Z,20.70
2022-10-18T08:45:43.203Z,20.70
2022-10-18T08:47:46.501Z,20.70
2022-10-18T08:49:50.222Z,20.70
2022-10-18T08:51:52.346Z,20.70
2022-10-18T08:53:57.404Z,20.70
2022-10-18T08:56:11.037Z,20.70
2022-10-18T08:58:15.594Z,20.80
2022-10-18T09:00:18.776Z,20.80
2022-10-18T09:02:41.807Z,20.80
2022-10-18T09:04:48.942Z,20.80
2022-10-18T09:06:58.102Z,20.80
2022-10-18T09:09:02.555Z,20.80
2022-10-18T09:14:15.490Z,20.90
2022-10-18T09:16:30.167Z,20.90
2022-10-18T09:18:37.404Z,20.90
2022-10-18T09:20:45.243Z,20.90
2022-10-18T09:23:03.025Z,20.90
2022-10-18T09:25:22.930Z,20.90
2022-10-18T09:27:43.063Z,21.00
2022-10-18T09:30:02.824Z,21.00
2022-10-18T09:32:14.179Z,21.00
2022-10-18T09:34:28.849Z,21.10
2022-10-18T09:36:35.651Z,21.10
2022-10-18T09:38:43.140Z,21.10
2022-10-18T09:41:07.176Z,21.10
2022-10-18T09:43:31.772Z,21.10
2022-10-18T09:45:40.312Z,21.20
2022-10-18T09:47:45.560Z,21.20
2022-10-18T09:49:56.474Z,21.20
2022-10-18T09:52:00.153Z,21.20
2022-10-18T09:54:04.879Z,21.30
2022-10-18T09:56:09.581Z,21.30
2022-10-18T09:58:12.848Z,21.30
2022-10-18T10:00:20.684Z,21.30
2022-10-18T10:02:23.350Z,21.30
2022-10-18T10:04:25.084Z,21.40
2022-10-18T10:06:31.268Z,21.40
2022-10-18T10:08:34.242Z,21.40
2022-10-18T10:10:38.887Z,21.50
2022-10-18T10:12:41.445Z,21.50
2022-10-18T10:14:44.083Z,21.60
2022-10-18T10:16:57.724Z,21.60
2022-10-18T10:18:59.646Z,21.70
2022-10-18T10:21:03.894Z,21.70
2022-10-18T10:23:22.923Z,21.80
2022-10-18T10:25:32.353Z,21.80
2022-10-18T10:27:34.373Z,21.90
2022-10-18T10:29:45.289Z,21.90
2022-10-18T10:32:01.125Z,21.90
2022-10-18T10:34:29.071Z,22.00
2022-10-18T10:36:31.494Z,22.00
2022-10-18T10:38:33.241Z,22.00
2022-10-18T10:40:36.734Z,22.00
2022-10-18T10:42:48.466Z,22.00
2022-10-18T10:44:54.214Z,22.10
2022-10-18T10:46:56.361Z,22.10
2022-10-18T10:49:27.805Z,22.10
2022-10-18T10:51:32.127Z,22.10
2022-10-18T10:53:36.346Z,22.10
2022-10-18T10:55:37.979Z,22.20
2022-10-18T10:57:39.653Z,22.20
2022-10-18T10:59:45.648Z,22.20
2022-10-18T11:01:49.746Z,22.20
2022-10-18T11:03:52.958Z,22.10
2022-10-18T11:06:01.741Z,22.20
2022-10-18T11:08:04.697Z,22.20
2022-10-18T11:10:15.340Z,22.20
2022-10-18T11:12:16.973Z,22.20
2022-10-18T11:14:26.175Z,22.20
2022-10-18T11:16:53.966Z,22.20
2022-10-18T11:18:56.880Z,22.10
2022-10-18T11:21:11.490Z,22.20
2022-10-18T11:23:17.150Z,22.20
2022-10-18T11:25:20.810Z,22.20
2022-10-18T11:27:28.266Z,22.20
2022-10-18T11:29:48.004Z,22.20
2022-10-18T11:32:00.053Z,22.20
2022-10-18T11:34:13.601Z,22.20
2022-10-18T11:36:15.284Z,22.20
2022-10-18T11:38:29.589Z,22.20
2022-10-18T11:40:31.246Z,22.20
2022-10-18T11:42:39.950Z,22.20
2022-10-18T11:44:59.051Z,22.20
2022-10-18T11:47:17.658Z,22.30
2022-10-18T11:49:25.383Z,22.30
2022-10-18T11:52:03.189Z,22.30
2022-10-18T11:54:19.467Z,22.30
2022-10-18T11:56:36.397Z,22.30
2022-10-18T11:58:56.259Z,22.30
2022-10-18T12:01:28.605Z,22.30
2022-10-18T12:03:35.144Z,22.40
2022-10-18T12:05:38.060Z,22.40
2022-10-18T12:07:47.529Z,22.40
2022-10-18T12:09:51.256Z,22.40
2022-10-18T12:11:58.170Z,22.40
2022-10-18T12:14:04.648Z,22.40
2022-10-18T12:16:07.681Z,22.40
2022-10-18T12:18:21.423Z,22.50
2022-10-18T12:20:36.560Z,22.40
2022-10-18T12:22:40.380Z,22.50
2022-10-18T12:24:42.055Z,22.50
2022-10-18T12:26:45.000Z,22.50
2022-10-18T12:28:46.685Z,22.50
2022-10-18T12:31:12.765Z,22.50
2022-10-18T12:33:27.759Z,22.50
2022-10-18T12:35:32.593Z,22.50
2022-10-18T12:37:52.808Z,22.50
2022-10-18T12:40:12.478Z,22.50
2022-10-18T12:42:25.380Z,22.50
2022-10-18T12:44:36.288Z,22.50
2022-10-18T12:46:47.186Z,22.50
2022-10-18T12:49:04.947Z,22.50
2022-10-18T12:51:13.497Z,22.50
2022-10-18T12:53:17.363Z,22.50
2022-10-18T12:55:19.420Z,22.40
2022-10-18T12:57:24.015Z,22.40
2022-10-18T12:59:26.685Z,22.40
2022-10-18T13:01:48.315Z,22.40
2022-10-18T13:03:52.924Z,22.40
2022-10-18T13:05:57.171Z,22.40
2022-10-18T13:08:18.787Z,22.40
2022-10-18T13:10:23.247Z,22.40
2022-10-18T13:12:24.931Z,22.40
2022-10-18T13:14:44.096Z,22.40
2022-10-18T13:16:55.167Z,22.30
2022-10-18T13:19:19.720Z,22.40
2022-10-18T13:21:40.508Z,22.30
2022-10-18T13:23:57.325Z,22.40
2022-10-18T13:26:04.277Z,22.30
2022-10-18T13:28:18.537Z,22.30
2022-10-18T13:30:25.972Z,22.30
2022-10-18T13:32:46.714Z,22.30
2022-10-18T13:34:49.411Z,22.30
2022-10-18T13:37:00.446Z,22.30
2022-10-18T13:39:04.719Z,22.30
2022-10-18T13:41:15.661Z,22.30
2022-10-18T13:43:35.811Z,22.30
2022-10-18T13:45:40.474Z,22.30
2022-10-18T13:47:42.153Z,22.40
2022-10-18T13:49:43.793Z,22.40
2022-10-18T13:51:51.509Z,22.40
2022-10-18T13:54:08.155Z,22.50
2022-10-18T13:56:28.275Z,22.50
2022-10-18T13:59:05.657Z,22.50
2022-10-18T14:01:29.618Z,22.50
2022-10-18T14:03:58.734Z,22.50
2022-10-18T14:06:09.145Z,22.60
2022-10-18T14:08:16.379Z,22.60
2022-10-18T14:10:43.357Z,22.60
2022-10-18T14:12:47.764Z,22.60
2022-10-18T14:14:55.688Z,22.60
2022-10-18T14:17:08.452Z,22.60
2022-10-18T14:19:30.383Z,22.60
2022-10-18T14:21:34.993Z,22.60
2022-10-18T14:23:40.180Z,22.60
2022-10-18T14:25:41.974Z,22.60
2022-10-18T14:27:43.649Z,22.70
2022-10-18T14:29:45.865Z,22.70
2022-10-18T14:31:54.463Z,22.60
2022-10-18T14:33:58.621Z,22.70
2022-10-18T14:36:00.698Z,22.70
2022-10-18T14:38:03.063Z,22.70
2022-10-18T14:40:05.963Z,22.70
2022-10-18T14:42:18.847Z,22.70
2022-10-18T14:44:31.107Z,22.70
2022-10-18T14:46:34.423Z,22.70
2022-10-18T14:48:36.043Z,22.70
2022-10-18T14:50:37.739Z,22.70
2022-10-18T14:52:39.422Z,22.70
2022-10-18T14:54:41.299Z,22.70
2022-10-18T14:56:43.574Z,22.70
2022-10-18T14:58:45.277Z,22.70
2022-10-18T15:00:48.572Z,22.70
2022-10-18T15:02:50.751Z,22.60
2022-10-18T15:05:07.465Z,22.60
2022-10-18T15:07:14.799Z,22.60
2022-10-18T15:09:20.312Z,22.60
2022-10-18T15:11:22.262Z,22.60
2022-10-18T15:13:25.160Z,22.60
2022-10-18T15:15:28.324Z,22.60
2022-10-18T15:17:31.655Z,22.60
2022-10-18T15:19:35.705Z,22.50
2022-10-18T15:21:37.428Z,22.60
2022-10-18T15:23:39.158Z,22.50
2022-10-18T15:25:40.872Z,22.50
2022-10-18T15:27:45.121Z,22.50
2022-10-18T15:29:47.099Z,22.50
2022-10-18T15:31:49.755Z,22.50
2022-10-18T15:33:52.006Z,22.50
2022-10-18T15:35:54.271Z,22.50
2022-10-18T15:37:57.122Z,22.50
2022-10-18T15:40:17.970Z,22.50
2022-10-18T15:42:36.768Z,22.40
2022-10-18T15:44:48.812Z,22.40
2022-10-18T15:46:52.995Z,22.40
2022-10-18T15:48:57.932Z,22.40
2022-10-18T15:51:01.990Z,22.40
2022-10-18T15:53:25.295Z,22.40
2022-10-18T15:55:30.004Z,22.40
2022-10-18T15:57:31.781Z,22.40
2022-10-18T15:59:33.522Z,22.40
2022-10-18T16:01:37.272Z,22.30
2022-10-18T16:03:39.465Z,22.30
2022-10-18T16:05:41.266Z,22.30
2022-10-18T16:07:43.201Z,22.30
2022-10-18T16:09:44.830Z,22.30
2022-10-18T16:11:47.161Z,22.30
2022-10-18T16:13:49.224Z,22.30
2022-10-18T16:15:51.501Z,22.20
2022-10-18T16:17:53.185Z,22.20
2022-10-18T16:19:54.843Z,22.20
2022-10-18T16:21:56.786Z,22.20
2022-10-18T16:23:58.738Z,22.20
2022-10-18T16:26:00.377Z,22.20
2022-10-18T16:28:02.004Z,22.10
2022-10-18T16:30:10.707Z,22.10
2022-10-18T16:32:12.485Z,22.10
2022-10-18T16:34:14.786Z,22.10
2022-10-18T16:36:17.461Z,22.10
2022-10-18T16:38:32.652Z,22.00
2022-10-18T16:40:38.977Z,22.00
2022-10-18T16:42:42.930Z,22.00
2022-10-18T16:44:45.366Z,22.00
2022-10-18T16:46:50.992Z,22.00
2022-10-18T16:48:55.991Z,22.00
2022-10-18T16:50:58.193Z,22.00
2022-10-18T16:52:59.817Z,22.00
2022-10-18T16:55:01.444Z,21.90
2022-10-18T16:57:03.126Z,21.90
2022-10-18T16:59:04.805Z,21.90
2022-10-18T17:01:08.872Z,21.80
2022-10-18T17:03:10.835Z,21.80
2022-10-18T17:05:12.534Z,21.80
2022-10-18T17:09:23.306Z,21.80
2022-10-18T17:11:26.010Z,21.80
2022-10-18T17:13:27.750Z,21.80
2022-10-18T17:15:32.804Z,21.70
2022-10-18T17:17:37.635Z,21.70
2022-10-18T17:19:39.278Z,21.70
2022-10-18T17:21:41.894Z,21.70
2022-10-18T17:23:43.542Z,21.70
2022-10-18T17:25:58.985Z,21.70
2022-10-18T17:28:10.898Z,21.60
2022-10-18T17:30:13.145Z,21.60
2022-10-18T17:32:14.863Z,21.60
2022-10-18T17:34:21.241Z,21.60
2022-10-18T17:36:23.250Z,21.60
2022-10-18T17:38:24.900Z,21.60
2022-10-18T17:40:26.549Z,21.60
2022-10-18T17:42:28.303Z,21.60
2022-10-18T17:44:30.274Z,21.60
2022-10-18T17:46:32.014Z,21.50
2022-10-18T17:48:33.683Z,21.50
2022-10-18T17:50:35.395Z,21.50
2022-10-18T17:52:40.802Z,21.50
2022-10-18T17:54:42.431Z,21.50
2022-10-18T17:56:45.144Z,21.50
2022-10-18T17:58:50.259Z,21.40
2022-10-18T18:00:52.013Z,21.40
2022-10-18T18:02:56.499Z,21.40
2022-10-18T18:04:58.218Z,21.40
2022-10-18T18:06:59.967Z,21.40
2022-10-18T18:09:08.841Z,21.40
2022-10-18T18:11:10.540Z,21.40
2022-10-18T18:13:15.086Z,21.40
2022-10-18T18:15:19.315Z,21.40
2022-10-18T18:17:28.713Z,21.30
2022-10-18T18:19:36.462Z,21.40
2022-10-18T18:21:39.156Z,21.40
2022-10-18T18:23:41.446Z,21.30
2022-10-18T18:25:43.086Z,21.30
2022-10-18T18:27:44.753Z,21.30
2022-10-18T18:29:46.435Z,21.30
2022-10-18T18:31:48.660Z,21.30
2022-10-18T18:33:51.157Z,21.30
2022-10-18T18:35:58.842Z,21.30
2022-10-18T18:38:00.599Z,21.30
2022-10-18T18:40:02.291Z,21.30
2022-10-18T18:42:04.014Z,21.30
2022-10-18T18:44:06.055Z,21.30
2022-10-18T18:46:07.895Z,21.20
2022-10-18T18:48:09.533Z,21.20
2022-10-18T18:50:11.210Z,21.20
2022-10-18T18:52:12.883Z,21.20
2022-10-18T18:54:15.125Z,21.20
2022-10-18T18:56:18.155Z,21.20
2022-10-18T18:58:19.955Z,21.20
2022-10-18T19:00:21.660Z,21.20
2022-10-18T19:02:23.386Z,21.20
2022-10-18T19:04:25.377Z,21.20
2022-10-18T19:06:37.750Z,21.10
2022-10-18T19:08:39.957Z,21.20
2022-10-18T19:10:41.626Z,21.20
2022-10-18T19:12:43.299Z,21.20
2022-10-18T19:14:45.942Z,21.20
2022-10-18T19:16:48.869Z,21.10
2022-10-18T19:19:02.694Z,21.10
2022-10-18T19:21:04.407Z,21.10
2022-10-18T19:23:06.103Z,21.10
2022-10-18T19:25:08.180Z,21.20
2022-10-18T19:27:14.372Z,21.10
2022-10-18T19:29:16.116Z,21.10
2022-10-18T19:31:17.874Z,21.10
2022-10-18T19:33:35.574Z,21.10
2022-10-18T19:35:43.850Z,21.10
2022-10-18T19:37:45.508Z,21.10
2022-10-18T19:39:47.285Z,21.10
2022-10-18T19:41:50.541Z,21.10
2022-10-18T19:43:52.431Z,21.10
2022-10-18T19:45:54.101Z,21.00
2022-10-18T19:47:56.160Z,21.00
2022-10-18T19:49:59.112Z,21.00
2022-10-18T19:52:00.806Z,21.00
2022-10-18T19:54:02.607Z,21.00
2022-10-18T19:56:05.441Z,21.00
2022-10-18T19:58:07.144Z,21.00
2022-10-18T20:00:10.868Z,21.00
2022-10-18T20:02:16.074Z,21.00
2022-10-18T20:04:18.152Z,21.00
2022-10-18T20:06:20.113Z,20.90
2022-10-18T20:08:22.252Z,20.90
2022-10-18T20:10:24.014Z,20.90
2022-10-18T20:12:25.818Z,20.90
2022-10-18T20:14:27.612Z,20.90
2022-10-18T20:16:31.038Z,20.90
2022-10-18T20:18:33.089Z,20.90
2022-10-18T20:20:35.202Z,20.90
2022-10-18T20:22:36.871Z,20.90
2022-10-18T20:24:38.501Z,20.90
2022-10-18T20:26:40.219Z,20.90
2022-10-18T20:28:42.093Z,20.90
2022-10-18T20:30:43.777Z,20.90
2022-10-18T20:32:45.500Z,20.90
2022-10-18T20:34:47.152Z,20.90
2022-10-18T20:36:48.802Z,20.80
2022-10-18T20:38:50.597Z,20.90
2022-10-18T20:40:52.245Z,20.90
2022-10-18T20:42:54.037Z,20.80
2022-10-18T20:44:55.856Z,20.80
2022-10-18T20:46:57.567Z,20.90
2022-10-18T20:48:59.712Z,20.90
2022-10-18T20:51:09.076Z,20.80
2022-10-18T20:53:10.701Z,20.80
2022-10-18T20:55:13.044Z,20.80
2022-10-18T20:57:14.697Z,20.80
2022-10-18T20:59:17.031Z,20.80
2022-10-18T21:01:20.075Z,20.80
2022-10-18T21:03:21.815Z,20.70
2022-10-18T21:05:23.525Z,20.70
2022-10-18T21:07:25.152Z,20.70
2022-10-18T21:09:26.826Z,20.80
2022-10-18T21:11:29.837Z,20.70
2022-10-18T21:13:31.893Z,20.70
2022-10-18T21:15:33.572Z,20.70
2022-10-18T21:17:35.344Z,20.70
2022-10-18T21:19:37.206Z,20.70
2022-10-18T21:21:40.283Z,20.70
2022-10-18T21:23:42.129Z,20.60
2022-10-18T21:25:44.518Z,20.60
2022-10-18T21:27:46.160Z,20.70
2022-10-18T21:29:48.570Z,20.60
2022-10-18T21:31:53.585Z,20.60
2022-10-18T21:33:58.335Z,20.60
2022-10-18T21:36:02.132Z,20.60
2022-10-18T21:38:04.347Z,20.60
2022-10-18T21:40:06.430Z,20.60
2022-10-18T21:42:08.679Z,20.50
2022-10-18T21:44:11.310Z,20.50
2022-10-18T21:46:13.438Z,20.50
2022-10-18T21:48:15.125Z,20.40
2022-10-18T21:50:16.771Z,20.40
2022-10-18T21:52:18.483Z,20.40
2022-10-18T21:54:20.214Z,20.40
2022-10-18T21:56:22.922Z,20.40
2022-10-18T21:58:24.608Z,20.40
2022-10-18T22:00:26.242Z,20.30
2022-10-18T22:02:27.926Z,20.30
2022-10-18T22:04:35.491Z,20.30
2022-10-18T22:06:37.181Z,20.20
2022-10-18T22:08:39.415Z,20.20
2022-10-18T22:10:41.071Z,20.10
2022-10-18T22:12:42.726Z,20.10
2022-10-18T22:14:44.353Z,20.10
2022-10-18T22:16:46.086Z,20.10
2022-10-18T22:18:50.941Z,20.10
2022-10-18T22:20:53.409Z,20.00
2022-10-18T22:22:55.704Z,20.00
2022-10-18T22:24:58.019Z,20.00
2022-10-18T22:26:59.651Z,20.00
2022-10-18T22:29:19.908Z,19.90
2022-10-18T22:31:25.079Z,19.90
2022-10-18T22:33:26.918Z,19.90
2022-10-18T22:35:28.586Z,19.90
2022-10-18T22:37:30.462Z,19.90
2022-10-18T22:39:32.232Z,19.80
2022-10-18T22:41:34.466Z,19.80
2022-10-18T22:43:36.382Z,19.80
2022-10-18T22:45:41.531Z,19.70
2022-10-18T22:47:43.174Z,19.70
2022-10-18T22:49:44.825Z,19.70
2022-10-18T22:51:46.429Z,19.70
2022-10-18T22:53:48.151Z,19.70
2022-10-18T22:55:50.053Z,19.60
2022-10-18T22:57:51.705Z,19.60
2022-10-18T22:59:53.447Z,19.60
2022-10-18T23:01:55.075Z,19.60
2022-10-18T23:03:58.078Z,19.50
2022-10-18T23:05:59.912Z,19.50
2022-10-18T23:08:01.539Z,19.50
2022-10-18T23:10:03.371Z,19.50
2022-10-18T23:12:05.005Z,19.50
2022-10-18T23:14:06.679Z,19.50
2022-10-18T23:16:08.557Z,19.40
2022-10-18T23:18:10.234Z,19.40
2022-10-18T23:20:11.852Z,19.40
2022-10-18T23:22:14.891Z,19.40
2022-10-18T23:24:16.555Z,19.40
2022-10-18T23:26:20.664Z,19.40
2022-10-18T23:28:22.274Z,19.40
2022-10-18T23:30:23.907Z,19.40
2022-10-18T23:32:25.626Z,19.30
2022-10-18T23:34:27.257Z,19.30
2022-10-18T23:36:28.947Z,19.30
2022-10-18T23:38:31.229Z,19.30
2022-10-18T23:40:32.867Z,19.30
2022-10-18T23:42:34.478Z,19.30
2022-10-18T23:44:36.075Z,19.30
2022-10-18T23:46:37.730Z,19.30
2022-10-18T23:48:39.367Z,19.30
2022-10-18T23:50:42.321Z,19.30
2022-10-18T23:52:43.945Z,19.20
2022-10-18T23:54:45.588Z,19.20
2022-10-18T23:56:47.200Z,19.20
2022-10-18T23:58:48.827Z,19.20
